createdAt,value
2019-05-14T00:01:04.136Z,94.40
2019-05-14T00:03:34.202Z,96.00
2019-05-14T00:06:04.056Z,94.20
2019-05-14T00:08:34.027Z,94.10
2019-05-14T00:11:04.763Z,94.50
2019-05-14T00:13:34.399Z,94.10
2019-05-14T00:16:04.076Z,96.10
2019-05-14T00:18:34.108Z,98.40
2019-05-14T00:21:03.787Z,98.40
2019-05-14T00:23:33.925Z,95.70
2019-05-14T00:26:03.629Z,96.60
2019-05-14T00:28:33.651Z,95.10
2019-05-14T00:31:03.712Z,97.60
2019-05-14T00:33:33.587Z,99.90
2019-05-14T00:36:03.443Z,97.50
2019-05-14T00:38:33.325Z,96.30
2019-05-14T00:41:03.156Z,98.80
2019-05-14T00:43:32.947Z,99.80
2019-05-14T00:46:02.781Z,99.80
2019-05-14T00:48:34.372Z,97.10
2019-05-14T00:51:04.416Z,96.20
2019-05-14T00:53:34.446Z,98.00
2019-05-14T00:56:04.541Z,99.90
2019-05-14T00:58:34.352Z,99.90
2019-05-14T01:01:04.216Z,99.90
2019-05-14T01:03:33.972Z,99.90
2019-05-14T01:06:03.948Z,99.90
2019-05-14T01:08:33.904Z,99.90
2019-05-14T03:31:32.245Z,99.90
2019-05-14T03:34:03.166Z,99.90
2019-05-14T03:36:34.342Z,99.90
2019-05-14T03:39:02.561Z,99.90
2019-05-14T03:41:32.357Z,99.90
2019-05-14T03:44:02.287Z,99.90
2019-05-14T03:46:45.699Z,99.90
2019-05-14T03:49:03.593Z,99.90
2019-05-14T03:51:33.488Z,99.90
2019-05-14T03:54:07.480Z,99.90
2019-05-14T03:56:34.362Z,99.90
2019-05-14T03:59:04.095Z,99.90
2019-05-14T04:01:33.839Z,99.90
2019-05-14T04:04:03.648Z,99.90
2019-05-14T04:06:33.881Z,99.90
2019-05-14T04:09:09.432Z,99.90
2019-05-14T04:11:39.834Z,99.90
2019-05-14T04:14:12.954Z,99.90
2019-05-14T04:16:59.849Z,99.90
2019-05-14T04:19:19.114Z,99.90
2019-05-14T04:21:50.422Z,99.90
2019-05-14T04:24:22.148Z,99.90
2019-05-14T04:27:02.108Z,99.90
2019-05-14T04:29:30.597Z,99.90
2019-05-14T04:32:00.478Z,99.90
2019-05-14T04:34:30.795Z,99.90
2019-05-14T04:37:00.994Z,99.90
2019-05-14T04:39:32.259Z,99.90
2019-05-14T04:42:01.815Z,99.90
2019-05-14T04:44:32.082Z,99.90
2019-05-14T04:47:20.244Z,99.90
2019-05-14T04:49:33.518Z,99.90
2019-05-14T04:52:03.727Z,99.90
2019-05-14T04:54:34.621Z,99.90
2019-05-14T04:57:04.181Z,99.90
2019-05-14T04:59:34.078Z,99.90
2019-05-14T05:02:03.666Z,99.90
2019-05-14T05:04:33.955Z,99.90
2019-05-14T05:07:03.724Z,99.90
2019-05-14T05:09:33.350Z,99.90
2019-05-14T05:12:02.971Z,99.90
2019-05-14T05:14:32.775Z,99.90
2019-05-14T05:17:02.514Z,99.90
2019-05-14T05:19:32.311Z,99.90
2019-05-14T05:22:02.430Z,99.90
2019-05-14T05:24:32.242Z,99.90
2019-05-14T05:27:01.914Z,99.90
2019-05-14T05:29:31.938Z,99.90
2019-05-14T05:32:01.554Z,99.40
2019-05-14T05:34:31.161Z,99.90
2019-05-14T05:37:00.987Z,99.90
2019-05-14T05:39:31.912Z,99.90
2019-05-14T05:42:01.505Z,99.90
2019-05-14T05:44:31.913Z,99.90
2019-05-14T05:47:01.508Z,99.90
2019-05-14T05:49:31.470Z,99.90
2019-05-14T05:52:03.061Z,99.90
2019-05-14T05:54:32.850Z,99.70
2019-05-14T05:57:05.170Z,99.80
2019-05-14T05:59:35.429Z,97.80
2019-05-14T06:02:05.410Z,99.20
2019-05-14T06:04:35.038Z,99.90
2019-05-14T06:07:04.873Z,99.90
2019-05-14T06:09:34.541Z,99.90
2019-05-14T06:12:04.358Z,99.90
2019-05-14T06:14:33.985Z,99.90
2019-05-14T06:17:03.784Z,99.90
2019-05-14T06:19:33.421Z,99.70
2019-05-14T06:22:04.296Z,99.90
2019-05-14T06:24:34.207Z,99.50
2019-05-14T06:27:03.897Z,99.90
2019-05-14T06:29:33.767Z,99.90
2019-05-14T06:32:03.626Z,99.90
2019-05-14T06:34:33.373Z,99.30
2019-05-14T06:37:03.546Z,99.80
2019-05-14T06:39:33.174Z,99.90
2019-05-14T06:42:04.670Z,99.70
2019-05-14T06:44:34.587Z,98.80
2019-05-14T06:47:05.077Z,98.90
2019-05-14T06:49:38.543Z,99.90
2019-05-14T06:52:08.795Z,99.00
2019-05-14T06:54:39.002Z,98.00
2019-05-14T06:57:09.021Z,98.30
2019-05-14T06:59:40.696Z,98.80
2019-05-14T07:02:10.583Z,98.80
2019-05-14T07:04:40.356Z,99.90
2019-05-14T07:07:10.405Z,99.30
2019-05-14T07:09:40.154Z,97.50
2019-05-14T07:12:10.021Z,98.20
2019-05-14T07:14:39.925Z,97.50
2019-05-14T07:17:09.845Z,98.60
2019-05-14T07:19:39.514Z,99.20
2019-05-14T07:22:11.017Z,97.70
2019-05-14T07:24:40.842Z,98.60
2019-05-14T07:27:10.748Z,99.10
2019-05-14T07:29:40.990Z,99.10
2019-05-14T07:32:12.905Z,98.80
2019-05-14T07:34:43.944Z,99.40
2019-05-14T07:37:14.598Z,97.70
2019-05-14T07:39:44.171Z,97.70
2019-05-14T07:42:14.521Z,96.30
2019-05-14T07:44:44.521Z,97.50
2019-05-14T07:47:18.572Z,96.20
2019-05-14T07:49:48.800Z,94.70
2019-05-14T07:52:19.687Z,94.90
2019-05-14T07:54:51.391Z,95.10
2019-05-14T07:57:21.053Z,95.60
2019-05-14T07:59:50.854Z,95.30
2019-05-14T08:02:20.541Z,97.00
2019-05-14T08:04:50.982Z,97.20
2019-05-14T08:07:20.606Z,98.30
2019-05-14T08:09:50.906Z,98.00
2019-05-14T08:12:20.525Z,95.70
2019-05-14T08:15:14.358Z,96.60
2019-05-14T08:17:23.633Z,97.40
2019-05-14T08:19:53.457Z,95.50
2019-05-14T08:22:25.214Z,95.30
2019-05-14T08:24:55.022Z,94.80
2019-05-14T08:27:28.035Z,94.50
2019-05-14T08:29:59.369Z,95.00
2019-05-14T08:32:30.538Z,93.80
2019-05-14T08:35:00.285Z,94.50
2019-05-14T08:37:30.054Z,94.90
2019-05-14T08:40:00.818Z,94.90
2019-05-14T08:42:34.028Z,95.80
2019-05-14T08:45:04.818Z,96.20
2019-05-14T08:47:33.621Z,94.40
2019-05-14T08:50:05.330Z,93.60
2019-05-14T08:52:35.170Z,95.00
2019-05-14T08:55:10.099Z,95.00
2019-05-14T08:57:38.582Z,93.40
2019-05-14T09:00:13.632Z,91.90
2019-05-14T09:02:39.489Z,92.40
2019-05-14T09:05:10.681Z,92.10
2019-05-14T09:07:41.037Z,92.30
2019-05-14T09:10:11.442Z,91.90
2019-05-14T09:12:41.132Z,90.10
2019-05-14T09:15:10.903Z,92.10
2019-05-14T09:17:40.751Z,89.20
2019-05-14T09:20:11.660Z,90.90
2019-05-14T09:22:41.808Z,90.10
2019-05-14T09:25:11.675Z,90.20
2019-05-14T09:27:41.539Z,86.70
2019-05-14T09:30:11.234Z,88.50
2019-05-14T09:32:41.110Z,85.60
2019-05-14T09:35:10.993Z,84.70
2019-05-14T09:37:41.094Z,82.90
2019-05-14T09:40:10.869Z,83.10
2019-05-14T09:42:40.834Z,81.10
2019-05-14T09:45:11.734Z,83.00
2019-05-14T09:47:47.129Z,81.50
2019-05-14T09:50:19.483Z,80.50
2019-05-14T09:52:49.214Z,82.60
2019-05-14T09:55:18.642Z,88.30
2019-05-14T09:57:49.133Z,85.30
2019-05-14T10:00:20.506Z,84.30
2019-05-14T10:02:50.283Z,80.20
2019-05-14T10:05:20.045Z,83.20
2019-05-14T10:07:49.701Z,84.70
2019-05-14T10:10:19.936Z,81.10
2019-05-14T10:12:53.906Z,76.00
2019-05-14T10:15:21.130Z,74.90
2019-05-14T10:17:50.745Z,79.70
2019-05-14T10:20:36.542Z,80.80
2019-05-14T10:22:53.537Z,83.80
2019-05-14T10:25:23.247Z,80.50
2019-05-14T10:27:52.855Z,83.80
2019-05-14T10:30:23.974Z,81.80
2019-05-14T10:32:55.217Z,83.40
2019-05-14T10:35:25.285Z,81.30
2019-05-14T10:37:55.086Z,79.10
2019-05-14T10:40:29.062Z,79.50
2019-05-14T10:43:01.905Z,78.00
2019-05-14T10:45:31.670Z,71.10
2019-05-14T10:48:01.417Z,73.20
2019-05-14T10:50:31.293Z,72.50
2019-05-14T10:53:01.494Z,69.10
2019-05-14T10:55:31.305Z,73.00
2019-05-14T10:58:00.948Z,70.70
2019-05-14T11:00:31.801Z,74.30
2019-05-14T11:03:01.423Z,71.40
2019-05-14T11:05:31.014Z,71.40
2019-05-14T11:08:00.977Z,72.00
2019-05-14T11:10:30.818Z,75.50
2019-05-14T11:13:00.448Z,73.00
2019-05-14T11:15:30.633Z,74.80
2019-05-14T11:18:01.752Z,75.80
2019-05-14T11:20:31.488Z,73.50
2019-05-14T11:23:01.208Z,75.80
2019-05-14T11:25:30.797Z,82.60
2019-05-14T11:28:00.454Z,78.40
2019-05-14T11:30:30.140Z,83.20
2019-05-14T11:33:01.789Z,76.50
2019-05-14T11:35:31.378Z,79.20
2019-05-14T11:38:00.990Z,74.90
2019-05-14T11:40:30.676Z,73.20
2019-05-14T11:43:00.377Z,75.30
2019-05-14T11:45:29.974Z,75.00
2019-05-14T11:47:59.590Z,76.00
2019-05-14T11:50:29.538Z,75.20
2019-05-14T11:52:59.200Z,72.90
2019-05-14T11:55:28.790Z,73.70
2019-05-14T11:57:58.779Z,77.80
2019-05-14T12:00:29.545Z,77.40
2019-05-14T12:02:59.449Z,73.40
2019-05-14T12:05:30.420Z,73.30
2019-05-14T12:08:00.234Z,75.90
2019-05-14T12:10:29.870Z,73.50
2019-05-14T12:12:59.734Z,71.20
2019-05-14T12:15:29.734Z,70.80
2019-05-14T12:17:59.763Z,72.70
2019-05-14T12:20:29.787Z,71.90
2019-05-14T12:22:59.521Z,68.60
2019-05-14T12:25:29.525Z,72.50
2019-05-14T12:27:59.226Z,72.00
2019-05-14T12:30:28.906Z,67.80
2019-05-14T12:32:59.181Z,67.80
2019-05-14T12:35:29.354Z,70.40
2019-05-14T12:37:59.038Z,70.30
2019-05-14T12:40:29.123Z,66.70
2019-05-14T12:42:59.438Z,67.60
2019-05-14T12:45:30.065Z,70.90
2019-05-14T12:47:59.826Z,68.90
2019-05-14T12:50:29.453Z,70.70
2019-05-14T12:52:59.254Z,67.40
2019-05-14T12:55:29.345Z,67.50
2019-05-14T12:57:59.699Z,67.00
2019-05-14T13:00:29.597Z,66.90
2019-05-14T13:02:59.603Z,68.40
2019-05-14T13:05:29.540Z,65.90
2019-05-14T13:07:59.193Z,67.60
2019-05-14T13:10:29.559Z,66.20
2019-05-14T13:12:59.396Z,66.20
2019-05-14T13:15:29.021Z,68.70
2019-05-14T13:17:59.679Z,67.80
2019-05-14T13:20:29.285Z,67.10
2019-05-14T13:22:59.174Z,65.00
2019-05-14T13:25:30.354Z,65.20
2019-05-14T13:28:00.429Z,64.20
2019-05-14T13:30:30.238Z,64.40
2019-05-14T13:33:00.110Z,66.90
2019-05-14T13:35:29.858Z,65.60
2019-05-14T13:38:00.155Z,65.70
2019-05-14T13:40:31.005Z,68.50
2019-05-14T13:43:00.590Z,65.40
2019-05-14T13:45:30.528Z,64.80
2019-05-14T13:48:00.134Z,66.80
2019-05-14T13:50:29.961Z,66.20
2019-05-14T13:53:07.548Z,67.60
2019-05-14T13:55:31.235Z,63.20
2019-05-14T13:58:01.623Z,65.20
2019-05-14T14:00:31.468Z,61.30
2019-05-14T14:03:01.127Z,62.80
2019-05-14T14:05:30.977Z,62.80
2019-05-14T14:08:00.608Z,63.90
2019-05-14T14:10:36.225Z,63.50
2019-05-14T14:13:06.487Z,63.10
2019-05-14T14:15:34.793Z,62.50
2019-05-14T14:18:04.595Z,65.40
2019-05-14T14:20:34.216Z,61.90
2019-05-14T14:23:18.906Z,63.20
2019-05-14T14:25:35.588Z,65.10
2019-05-14T14:28:05.308Z,64.80
2019-05-14T14:30:34.922Z,64.80
2019-05-14T14:33:04.883Z,65.20
2019-05-14T14:35:35.998Z,62.90
2019-05-14T14:38:08.512Z,63.20
2019-05-14T14:40:39.532Z,63.80
2019-05-14T14:43:08.758Z,64.40
2019-05-14T14:45:44.652Z,63.30
2019-05-14T14:48:12.387Z,61.40
2019-05-14T14:50:41.304Z,58.60
2019-05-14T14:53:10.879Z,61.00
2019-05-14T14:55:40.643Z,65.90
2019-05-14T14:58:11.540Z,60.60
2019-05-14T15:00:41.701Z,62.70
2019-05-14T15:03:12.802Z,58.40
2019-05-14T15:05:42.867Z,58.90
2019-05-14T15:08:12.609Z,61.00
2019-05-14T15:10:44.617Z,62.20
2019-05-14T15:13:14.301Z,59.50
2019-05-14T15:15:44.022Z,60.20
2019-05-14T15:18:14.273Z,60.20
2019-05-14T15:20:44.189Z,60.60
2019-05-14T15:23:14.975Z,59.00
2019-05-14T15:25:44.594Z,58.30
2019-05-14T15:28:14.457Z,60.60
2019-05-14T15:30:44.069Z,60.90
2019-05-14T15:33:13.925Z,60.70
2019-05-14T15:35:43.686Z,59.00
2019-05-14T15:38:13.425Z,59.90
2019-05-14T15:40:43.090Z,59.00
2019-05-14T15:43:13.111Z,58.90
2019-05-14T15:45:42.710Z,59.40
2019-05-14T15:48:12.794Z,59.60
2019-05-14T15:50:42.646Z,59.50
2019-05-14T15:53:12.422Z,57.10
2019-05-14T15:55:42.270Z,57.90
2019-05-14T15:58:13.142Z,58.30
2019-05-14T16:00:43.533Z,59.80
2019-05-14T16:03:13.292Z,57.30
2019-05-14T16:05:43.146Z,58.00
2019-05-14T16:08:12.906Z,59.00
2019-05-14T16:10:42.758Z,58.30
2019-05-14T16:13:12.333Z,58.90
2019-05-14T16:15:42.245Z,58.60
2019-05-14T16:18:18.583Z,58.10
2019-05-14T16:20:45.378Z,57.70
2019-05-14T16:23:15.035Z,59.70
2019-05-14T16:25:48.180Z,58.20
2019-05-14T16:28:19.517Z,59.60
2019-05-14T16:30:49.784Z,57.30
2019-05-14T16:33:21.485Z,61.20
2019-05-14T16:35:51.411Z,63.00
2019-05-14T16:38:23.185Z,58.40
2019-05-14T16:40:53.163Z,62.30
2019-05-14T16:43:22.995Z,59.30
2019-05-14T16:45:52.774Z,59.20
2019-05-14T16:48:22.955Z,57.70
2019-05-14T16:50:52.722Z,59.70
2019-05-14T16:53:22.566Z,57.30
2019-05-14T16:55:52.164Z,58.00
2019-05-14T16:58:22.089Z,59.20
2019-05-14T17:00:51.886Z,59.60
2019-05-14T17:03:21.709Z,60.50
2019-05-14T17:05:51.374Z,58.90
2019-05-14T17:08:21.143Z,57.40
2019-05-14T17:10:50.763Z,57.80
2019-05-14T17:13:20.573Z,57.70
2019-05-14T17:15:50.799Z,60.50
2019-05-14T17:18:20.603Z,57.90
2019-05-14T17:20:50.365Z,61.10
2019-05-14T17:23:20.193Z,62.40
2019-05-14T17:25:50.233Z,60.90
2019-05-14T17:28:20.206Z,61.80
2019-05-14T17:30:50.937Z,58.70
2019-05-14T17:33:21.304Z,60.50
2019-05-14T17:35:50.982Z,58.20
2019-05-14T17:38:20.910Z,59.10
2019-05-14T17:40:51.258Z,58.10
2019-05-14T17:43:23.291Z,60.50
2019-05-14T17:45:52.526Z,61.00
2019-05-14T17:48:22.113Z,62.90
2019-05-14T17:50:51.877Z,59.60
2019-05-14T17:53:21.758Z,61.60
2019-05-14T17:55:52.528Z,59.70
2019-05-14T17:58:22.392Z,62.40
2019-05-14T18:00:52.320Z,60.30
2019-05-14T18:03:23.211Z,61.10
2019-05-14T18:05:53.907Z,63.10
2019-05-14T18:08:23.687Z,63.60
2019-05-14T18:10:53.314Z,60.90
2019-05-14T18:13:23.357Z,64.00
2019-05-14T18:15:53.542Z,63.40
2019-05-14T18:18:23.321Z,59.80
2019-05-14T18:20:54.828Z,61.60
2019-05-14T18:23:24.497Z,60.90
2019-05-14T18:26:04.853Z,60.90
2019-05-14T18:28:28.640Z,61.90
2019-05-14T18:30:58.860Z,60.70
2019-05-14T18:33:31.155Z,63.00
2019-05-14T18:36:00.199Z,65.50
2019-05-14T18:38:31.236Z,59.80
2019-05-14T18:41:01.158Z,62.50
2019-05-14T18:43:30.883Z,61.50
2019-05-14T18:46:00.664Z,60.50
2019-05-14T18:48:30.611Z,60.90
2019-05-14T18:51:00.363Z,65.60
2019-05-14T18:53:30.112Z,61.10
2019-05-14T18:56:15.143Z,67.90
2019-05-14T18:58:31.277Z,64.60
2019-05-14T19:01:02.925Z,63.00
2019-05-14T19:03:32.735Z,66.60
2019-05-14T19:06:02.774Z,65.80
2019-05-14T19:08:32.586Z,64.30
2019-05-14T19:11:02.513Z,62.90
2019-05-14T19:13:32.411Z,67.20
2019-05-14T19:16:02.391Z,68.10
2019-05-14T19:18:31.934Z,66.50
2019-05-14T19:21:01.618Z,63.90
2019-05-14T19:23:31.438Z,66.70
2019-05-14T19:26:01.729Z,65.10
2019-05-14T19:28:31.621Z,69.10
2019-05-14T19:31:01.798Z,67.70
2019-05-14T19:33:31.723Z,68.40
2019-05-14T19:36:01.509Z,66.30
2019-05-14T19:38:31.433Z,66.60
2019-05-14T19:41:01.225Z,59.20
2019-05-14T19:43:32.084Z,66.90
2019-05-14T19:46:01.718Z,69.00
2019-05-14T19:48:32.940Z,68.20
2019-05-14T19:51:04.078Z,66.60
2019-05-14T19:53:34.411Z,67.10
2019-05-14T19:56:06.063Z,66.60
2019-05-14T19:58:38.162Z,66.80
2019-05-14T20:01:09.164Z,67.30
2019-05-14T20:03:39.107Z,65.00
2019-05-14T20:06:09.209Z,67.40
2019-05-14T20:08:39.289Z,67.30
2019-05-14T20:11:09.132Z,67.00
2019-05-14T20:13:39.298Z,67.00
2019-05-14T20:16:10.049Z,67.20
2019-05-14T20:18:40.032Z,67.50
2019-05-14T20:21:09.814Z,67.80
2019-05-14T20:23:40.020Z,68.00
2019-05-14T20:26:09.851Z,68.30
2019-05-14T20:28:39.682Z,68.50
2019-05-14T20:31:10.866Z,68.70
2019-05-14T20:33:41.291Z,69.00
2019-05-14T20:36:11.127Z,69.30
2019-05-14T20:38:40.967Z,70.20
2019-05-14T20:41:10.895Z,69.50
2019-05-14T20:43:40.694Z,69.70
2019-05-14T20:46:10.456Z,70.00
2019-05-14T20:48:40.445Z,70.20
2019-05-14T20:51:10.458Z,70.30
2019-05-14T20:53:40.166Z,70.20
2019-05-14T20:56:10.285Z,70.80
2019-05-14T20:58:40.302Z,71.00
2019-05-14T21:01:11.376Z,71.10
2019-05-14T21:03:43.957Z,71.40
2019-05-14T21:06:12.866Z,71.60
2019-05-14T21:08:42.698Z,71.90
2019-05-14T21:11:13.236Z,72.00
2019-05-14T21:13:43.027Z,72.30
2019-05-14T21:16:13.029Z,72.30
2019-05-14T21:18:43.222Z,72.50
2019-05-14T21:21:12.833Z,72.70
2019-05-14T21:23:43.149Z,73.10
2019-05-14T21:26:12.901Z,73.40
2019-05-14T21:28:42.475Z,73.50
2019-05-14T21:31:12.805Z,73.60
2019-05-14T21:33:42.405Z,73.80
2019-05-14T21:36:12.489Z,74.10
2019-05-14T21:38:43.949Z,74.30
2019-05-14T21:41:13.722Z,74.50
2019-05-14T21:43:43.505Z,74.70
2019-05-14T21:46:13.126Z,75.00
2019-05-14T21:48:43.110Z,75.20
2019-05-14T21:51:13.118Z,75.40
2019-05-14T21:53:43.078Z,75.50
2019-05-14T21:56:12.713Z,76.60
2019-05-14T21:58:42.292Z,76.00
2019-05-14T22:01:13.304Z,76.10
2019-05-14T22:03:42.877Z,76.30
2019-05-14T22:06:12.500Z,76.50
2019-05-14T22:08:42.073Z,76.70
2019-05-14T22:11:11.686Z,76.90
2019-05-14T22:13:41.261Z,77.00
2019-05-14T22:16:10.873Z,77.10
2019-05-14T22:18:40.626Z,77.30
2019-05-14T22:21:10.257Z,77.40
2019-05-14T22:23:40.194Z,77.50
2019-05-14T22:26:09.834Z,77.70
2019-05-14T22:28:39.717Z,77.70
2019-05-14T22:31:09.342Z,77.80
2019-05-14T22:33:38.952Z,77.90
2019-05-14T22:36:08.799Z,78.00
2019-05-14T22:38:38.894Z,78.10
2019-05-14T22:41:11.443Z,78.10
2019-05-14T22:43:40.494Z,78.30
2019-05-14T22:46:10.094Z,78.30
2019-05-14T22:48:39.981Z,78.40
2019-05-14T22:51:09.630Z,78.60
2019-05-14T22:53:39.461Z,78.80
2019-05-14T22:56:09.118Z,79.00
2019-05-14T22:58:38.850Z,79.20
2019-05-14T23:01:14.694Z,79.40
2019-05-14T23:03:40.240Z,79.50
2019-05-14T23:06:10.065Z,79.40
2019-05-14T23:08:39.730Z,79.40
2019-05-14T23:11:09.618Z,79.50
2019-05-14T23:13:39.371Z,80.60
2019-05-14T23:16:08.962Z,79.90
2019-05-14T23:18:38.713Z,80.50
2019-05-14T23:21:09.079Z,80.70
2019-05-14T23:23:39.374Z,80.70
2019-05-14T23:26:09.078Z,76.40
2019-05-14T23:28:45.489Z,83.30
2019-05-14T23:31:11.268Z,82.60
2019-05-14T23:33:40.878Z,83.50
2019-05-14T23:36:10.897Z,83.00
2019-05-14T23:38:40.977Z,82.40
2019-05-14T23:41:10.891Z,81.70
2019-05-14T23:43:40.474Z,82.70
2019-05-14T23:46:10.496Z,82.20
2019-05-14T23:48:40.453Z,81.90
2019-05-14T23:51:10.074Z,81.80
2019-05-14T23:53:39.645Z,81.80
2019-05-14T23:56:09.304Z,82.10
2019-05-14T23:58:38.870Z,82.00
